Bookmark and Share
Track history (hours):
 

Drifting buoy 41938

Last reported at 2014-Apr-23 09:00 UTC. Time now 2014-Apr-23 09:37 UTC.
Position N 29°11' W 066°27'.

Barometer 1009.6 mb
Water temperature 22.8 ° C

NotesDate/timePositionNaut miles runAvg speedWind from/ knotsBaromVisibWave heightAir tempDewpointWater temp
2014-Apr-23 09:00N 29°11' W 066°27'1 0.9 1009.6 22.8
2014-Apr-23 08:00N 29°11' W 066°26'0 0.1 1009.4 22.8
2014-Apr-23 07:00N 29°11' W 066°26'1 0.9 1009.4 22.9
2014-Apr-23 06:00N 29°12' W 066°27'0 0.0 1009.3 22.9
2014-Apr-23 05:00N 29°12' W 066°27'0 0.0 1010.0 22.9
2014-Apr-23 04:00N 29°12' W 066°27'1 0.7 1010.4 22.9
2014-Apr-23 03:00N 29°13' W 066°27'1 0.6 1010.5 23.0
2014-Apr-23 02:00N 29°13' W 066°26'1 1.2 1010.4 22.9
2014-Apr-23 01:00N 29°13' W 066°28'1 0.8 1010.3 23.0
2014-Apr-23 00:00N 29°13' W 066°28'0 0.1 1009.2 23.0
2014-Apr-22 23:00N 29°14' W 066°28'0 0.0 1008.7 23.0
2014-Apr-22 22:00N 29°14' W 066°28'1 0.9 1008.3 23.1
2014-Apr-22 21:00N 29°13' W 066°29'0 0.3 1008.0 23.2
2014-Apr-22 20:00N 29°13' W 066°29'1 0.3 1007.7 23.2
2014-Apr-22 18:00N 29°13' W 066°30'1 0.4 1008.2 23.1
2014-Apr-22 16:00N 29°12' W 066°31'0 0.2 1008.6 23.0
2014-Apr-22 14:00N 29°12' W 066°30'2 0.6 1008.9 22.8
2014-Apr-22 11:00N 29°11' W 066°29'1 1.1 1008.0 22.7
2014-Apr-22 10:00N 29°12' W 066°29'0 0.4 1007.5 22.7
2014-Apr-22 09:00N 29°12' W 066°29'1 0.9 1007.3 22.7
2014-Apr-22 08:00N 29°13' W 066°28'1 1.0 1007.1 22.7
2014-Apr-22 07:00N 29°14' W 066°28'1 0.7 1007.2 22.8
2014-Apr-22 05:00N 29°15' W 066°29'1 1.5 1008.3 22.7
2014-Apr-22 04:00N 29°14' W 066°28'1 0.7 1009.0 22.7
2014-Apr-22 02:00N 29°15' W 066°29'0 0.1 1009.6 22.7
2014-Apr-22 01:00N 29°15' W 066°29'2 1.7 1009.6 22.8
2014-Apr-22 00:00N 29°16' W 066°31'2 0.4 1009.3 22.8
2014-Apr-21 20:00N 29°15' W 066°33'1 0.5 1009.8 22.9
2014-Apr-21 18:00N 29°15' W 066°34'2 1.7 1011.6 22.9
2014-Apr-21 17:00N 29°15' W 066°36'1 0.6 1012.0 23.0
2014-Apr-21 15:00N 29°14' W 066°37'3 2.6 1013.2 23.3
2014-Apr-21 14:00N 29°12' W 066°39'0 0.1 1013.0 23.5
2014-Apr-21 10:00N 29°12' W 066°38'1 0.8 1014.1 23.6
2014-Apr-21 09:00N 29°12' W 066°39'0 0.2 1014.1 23.6
2014-Apr-21 08:00N 29°12' W 066°39'1 0.7 1015.5 23.6
2014-Apr-21 07:00N 29°11' W 066°40'0 0.0 1015.7 23.6
2014-Apr-21 06:00N 29°11' W 066°40'0 0.4 1016.0 23.7
2014-Apr-21 05:00N 29°11' W 066°39'1 0.3 1017.2 23.7
2014-Apr-21 02:00N 29°10' W 066°39'0 0.4 1019.1 23.7
2014-Apr-21 01:00N 29°10' W 066°39'0 0.2 1019.4 23.7
2014-Apr-21 00:00N 29°10' W 066°38'0 0.5 1019.3 23.7
2014-Apr-20 23:00N 29°10' W 066°38'0 0.0 1019.2 23.7
2014-Apr-20 22:00N 29°10' W 066°38'0 0.0 1019.3 23.7
2014-Apr-20 21:00N 29°10' W 066°38'1 1.2 1019.7 23.6
2014-Apr-20 20:00N 29°11' W 066°39'1 0.3 1019.9 23.6
2014-Apr-20 18:00N 29°11' W 066°40'0 0.3 1020.7 23.6
2014-Apr-20 17:00N 29°11' W 066°40'0 0.2 1021.1 23.6
2014-Apr-20 15:00N 29°12' W 066°41'1 0.6 1021.5 23.5
2014-Apr-20 14:00N 29°12' W 066°42'2 1.8 1021.7 23.3
2014-Apr-20 13:00N 29°10' W 066°43'0 0.2 1021.3 23.3
2014-Apr-20 10:00N 29°11' W 066°43'0 0.0 1020.4 23.3
2014-Apr-20 09:00N 29°11' W 066°43'1 0.6 1020.1 23.3
2014-Apr-20 07:00N 29°10' W 066°44'1 0.3 1020.4 23.4
2014-Apr-20 05:00N 29°11' W 066°45'0 0.0 1021.4 23.4
2014-Apr-20 04:00N 29°11' W 066°45'0 0.1 1022.0 23.4
2014-Apr-20 03:00N 29°11' W 066°45'1 0.3 1022.3 23.5
2014-Apr-20 01:00N 29°11' W 066°46'0 0.2 1022.4 23.5
2014-Apr-20 00:00N 29°11' W 066°45'1 0.5 1022.2 23.5
2014-Apr-19 22:00N 29°12' W 066°46'0 0.1 1022.0 23.6
2014-Apr-19 20:00N 29°12' W 066°46'1 0.6 1022.4 23.7
2014-Apr-19 19:00N 29°12' W 066°47'1 0.7 1022.5 23.7
2014-Apr-19 18:00N 29°13' W 066°47'0 0.0 1023.1 23.7
2014-Apr-19 17:00N 29°13' W 066°47'1 0.7 1023.3 23.6
2014-Apr-19 15:00N 29°14' W 066°48'1 1.1 1024.0 23.6
2014-Apr-19 14:00N 29°14' W 066°49'1 1.1 1023.8 23.5
2014-Apr-19 13:00N 29°14' W 066°51'1 0.2 1023.8 23.5
2014-Apr-19 10:00N 29°15' W 066°51'0 0.1 1023.0 23.5
2014-Apr-19 09:00N 29°15' W 066°51'1 0.5 1022.9 23.5
2014-Apr-19 07:00N 29°15' W 066°52'1 0.9 1023.0 23.5
2014-Apr-19 06:00N 29°16' W 066°53'2 0.3 1023.5 23.6
2014-Apr-19 01:00N 29°17' W 066°54'1 1.3 1024.8 23.6
2014-Apr-19 00:00N 29°18' W 066°54'2 0.6 1024.5 23.6
2014-Apr-18 20:00N 29°21' W 066°55'1 0.6 1024.5 23.8
2014-Apr-18 19:00N 29°21' W 066°55'1 0.7 1024.5 23.8
2014-Apr-18 17:00N 29°22' W 066°56'2 1.9 1025.3 23.7
2014-Apr-18 16:00N 29°24' W 066°57'0 0.4 1025.1 23.6
2014-Apr-18 15:00N 29°24' W 066°57'1 1.0 1025.3 23.6
2014-Apr-18 14:00N 29°24' W 066°59'1 1.5 1025.3 23.5
2014-Apr-18 13:00N 29°26' W 066°60'0 0.0 1025.0 23.5
2014-Apr-18 12:00N 29°26' W 066°60'0 0.0 1024.9 23.5
2014-Apr-18 11:00N 29°26' W 066°60'1 0.7 1024.9 23.5
2014-Apr-18 10:00N 29°26' W 067°00'1 1.2 1024.7 23.5
2014-Apr-18 09:00N 29°27' W 067°01'1 0.5 1025.0 23.5
2014-Apr-18 07:00N 29°27' W 067°02'3 2.7 1023.8 23.5
2014-Apr-18 06:00N 29°30' W 067°04'3 2.7 1024.1 23.6
2014-Apr-18 05:00N 29°27' W 067°02'3 1.3 1024.9 23.6
2014-Apr-18 03:00N 29°30' W 067°04'0 0.4 1025.9 23.4
2014-Apr-18 02:00N 29°30' W 067°03'1 1.0 1025.9 23.5
2014-Apr-18 01:00N 29°31' W 067°04'1 0.7 1025.6 23.5
2014-Apr-18 00:00N 29°31' W 067°03'4 1.8 1025.4 23.5
2014-Apr-17 22:00N 29°33' W 067°06'0 0.0 1025.0 23.5
2014-Apr-17 21:00N 29°33' W 067°06'2 2.1 1024.9 23.5
2014-Apr-17 20:00N 29°35' W 067°07'0 0.0 1024.8 23.5
2014-Apr-17 19:00N 29°35' W 067°07'2 0.8 1025.0 23.6
2014-Apr-17 17:00N 29°36' W 067°08'2 2.2 1025.5 23.6
2014-Apr-17 16:00N 29°38' W 067°09'2 0.9 1025.5 23.6
2014-Apr-17 14:00N 29°39' W 067°11'0 0.3 1025.1 23.5
2014-Apr-17 13:00N 29°39' W 067°11'3 0.8 1024.3 23.5
2014-Apr-17 09:00N 29°42' W 067°14'0 0.0 1021.7 23.6
2014-Apr-17 08:00N 29°42' W 067°14'2 1.7 1021.4 23.6
2014-Apr-17 07:00N 29°43' W 067°15'0 0.0 1021.7 23.7
2014-Apr-17 06:00N 29°43' W 067°15'0 0.0 1021.9 23.7
2014-Apr-17 05:00N 29°43' W 067°15'4 1.1 1022.2 23.7
2014-Apr-17 01:00N 29°47' W 067°17'2 1.6 1022.5 23.8
2014-Apr-17 00:00N 29°48' W 067°18'3 0.8 1022.2 23.8
2014-Apr-16 20:00N 29°50' W 067°21'0 0.0 1020.4 23.8
2014-Apr-16 19:00N 29°50' W 067°21'2 2.1 1020.6 23.7
2014-Apr-16 18:00N 29°50' W 067°24'0 0.0 1020.8 23.7
2014-Apr-16 17:00N 29°50' W 067°24'2 1.0 1021.0 23.7
2014-Apr-16 15:00N 29°52' W 067°23'4 0.9 1020.7 23.5
2014-Apr-16 11:00N 29°54' W 067°27'1 0.7 1019.0 23.5
2014-Apr-16 10:00N 29°55' W 067°26'1 0.6 1018.3 23.5
2014-Apr-16 09:00N 29°55' W 067°27'3 1.6 1017.9 23.5
2014-Apr-16 07:00N 29°56' W 067°31'3 2.6 1018.6 23.5
2014-Apr-16 06:00N 29°56' W 067°34'1 0.4 1019.3 23.5
2014-Apr-16 03:00N 29°57' W 067°34'0 0.0 1020.5 23.5
2014-Apr-16 02:00N 29°57' W 067°34'3 2.9 1020.5 23.6
2014-Apr-16 01:00N 29°59' W 067°37'0 0.0 1020.2 23.6
2014-Apr-16 00:00N 29°59' W 067°37'1 0.5 1019.5 23.6
2014-Apr-15 23:00N 29°58' W 067°37'0 0.3 1019.0 23.6
2014-Apr-15 22:00N 29°58' W 067°37'1 0.8 1018.7 23.6
2014-Apr-15 21:00N 29°58' W 067°38'0 0.1 1018.7 23.6
2014-Apr-15 20:00N 29°58' W 067°38'1 1.1 1018.7 23.7
2014-Apr-15 19:00N 29°59' W 067°38'0 0.0 1018.9 23.6
2014-Apr-15 18:00N 29°59' W 067°38'2 0.5 1019.5 23.6
2014-Apr-15 14:00N 30°01' W 067°40'2 0.5 1020.4 23.5
2014-Apr-15 11:00N 30°02' W 067°41'0 0.4 1019.0 23.5
2014-Apr-15 10:00N 30°03' W 067°41'1 1.5 1019.0 23.5
2014-Apr-15 09:00N 30°04' W 067°42'1 0.7 1018.9 23.5
2014-Apr-15 08:00N 30°04' W 067°42'0 0.0 1019.3 23.5
2014-Apr-15 07:00N 30°04' W 067°42'3 2.8 1019.5 23.5
2014-Apr-15 06:00N 30°05' W 067°44'3 2.8 1019.7 23.5
2014-Apr-15 05:00N 30°04' W 067°42'3 1.4 1020.4 23.5
2014-Apr-15 03:00N 30°05' W 067°44'0 0.4 1021.3 23.6
2014-Apr-15 02:00N 30°06' W 067°45'1 0.8 1021.6 23.6
2014-Apr-15 01:00N 30°06' W 067°45'1 0.3 1021.6 23.6
2014-Apr-14 22:00N 30°06' W 067°46'0 0.4 1021.0 23.7
2014-Apr-14 21:00N 30°06' W 067°47'1 0.3 1021.1 23.7
2014-Apr-14 19:00N 30°06' W 067°47'0 0.0 1021.2 23.7
2014-Apr-14 18:00N 30°06' W 067°47'0 0.2 1021.7 23.6
2014-Apr-14 16:00N 30°06' W 067°47'1 0.9 1022.7 23.5
2014-Apr-14 15:00N 30°06' W 067°48'0 0.1 1023.1 23.5
2014-Apr-14 13:00N 30°06' W 067°47'1 1.0 1022.8 23.4
2014-Apr-14 12:00N 30°07' W 067°47'0 0.0 1022.5 23.4
2014-Apr-14 11:00N 30°07' W 067°47'0 0.2 1022.3 23.4
2014-Apr-14 10:00N 30°07' W 067°47'0 0.4 1021.6 23.4
2014-Apr-14 09:00N 30°08' W 067°48'0 0.0 1021.6 23.4
2014-Apr-14 08:00N 30°08' W 067°48'1 0.6 1021.8 23.4
2014-Apr-14 06:00N 30°08' W 067°49'0 0.1 1022.7 23.4
2014-Apr-14 05:00N 30°08' W 067°49'0 0.0 1023.6 23.4
2014-Apr-14 04:00N 30°08' W 067°49'1 0.2 1023.9 23.4
2014-Apr-14 01:00N 30°07' W 067°49'0 0.0 1023.9 23.5
2014-Apr-14 00:00N 30°07' W 067°49'0 0.0 1023.5 23.5
2014-Apr-13 23:00N 30°07' W 067°49'3 0.2 1023.1 23.5
2014-Apr-13 11:00N 30°05' W 067°47'1 0.7 1023.6 23.5
2014-Apr-13 10:00N 30°05' W 067°48'0 0.3 1023.0 23.5
2014-Apr-13 09:00N 30°05' W 067°48'1 1.0 1022.8 23.5
2014-Apr-13 08:00N 30°05' W 067°49'   1022.7 23.5

Dump ship's entire track history

sailing weather and tide predictions

Buoy 41938